Time;durP1;ratioP1;P1;durP2;ratioP2;P2;SDS_P1;SDS_P2;PMS_P1;PMS_P2;Temp;Humidity;BMP_temperature;BMP_pressure;BME280_temperature;BME280_humidity;BME280_pressure;Samples;Min_cycle;Max_cycle;Signal;HPM_P1;HPM_P2
2022/03/21 00:00:40;;;;;;;26.35;12.23;;;;;;;;;;5069154;28;20043;-74
2022/03/21 00:03:09;;;;;;;22.40;11.50;;;;;;;;;;5064846;28;20028;-73
2022/03/21 00:05:36;;;;;;;25.15;13.00;;;;;;;;;;5070320;28;20092;-73
2022/03/21 00:08:02;;;;;;;19.98;9.82;;;;;;;;;;5066456;28;20028;-74
2022/03/21 00:10:30;;;;;;;19.88;8.93;;;;;;;;;;5068148;28;20037;-73
2022/03/21 00:12:56;;;;;;;17.02;8.60;;;;;;;;;;5070011;28;20024;-74
2022/03/21 00:15:23;;;;;;;17.58;9.65;;;;;;;;;;5069777;28;20044;-73
2022/03/21 00:17:49;;;;;;;20.15;10.38;;;;;;;;;;5069850;28;20032;-74
2022/03/21 00:20:15;;;;;;;20.55;9.38;;;;;;;;;;5069628;28;20069;-73
2022/03/21 00:22:42;;;;;;;18.55;9.48;;;;;;;;;;5070297;28;20044;-74
2022/03/21 00:25:08;;;;;;;15.90;8.70;;;;;;;;;;5069753;28;20490;-74
2022/03/21 00:27:35;;;;;;;14.10;8.38;;;;;;;;;;5069659;28;20672;-74
2022/03/21 00:30:01;;;;;;;19.20;9.18;;;;;;;;;;5069212;28;20041;-73
2022/03/21 00:32:27;;;;;;;17.95;10.50;;;;;;;;;;5069710;28;20142;-73
2022/03/21 00:34:54;;;;;;;20.80;10.25;;;;;;;;;;5060240;28;20121;-73
2022/03/21 00:37:20;;;;;;;19.35;10.50;;;;;;;;;;5060944;28;20029;-73
2022/03/21 00:39:46;;;;;;;15.35;10.15;;;;;;;;;;5069546;28;20024;-74
2022/03/21 00:42:12;;;;;;;20.55;10.65;;;;;;;;;;5069671;28;20078;-73
2022/03/21 00:44:38;;;;;;;18.63;11.48;;;;;;;;;;5068897;28;20037;-73
2022/03/21 00:47:04;;;;;;;26.10;12.90;;;;;;;;;;5069509;28;20032;-74
2022/03/21 00:49:31;;;;;;;19.30;12.68;;;;;;;;;;5068782;28;20028;-73
2022/03/21 00:51:57;;;;;;;20.10;11.82;;;;;;;;;;5069451;28;20036;-73
2022/03/21 00:54:23;;;;;;;21.45;11.27;;;;;;;;;;5068501;28;20074;-74
2022/03/21 00:56:49;;;;;;;18.17;9.13;;;;;;;;;;5068379;28;20072;-73
2022/03/21 00:59:15;;;;;;;17.42;9.18;;;;;;;;;;5069329;28;20032;-73
2022/03/21 01:01:41;;;;;;;20.10;10.32;;;;;;;;;;5052472;28;20104;-74
2022/03/21 01:04:07;;;;;;;19.30;9.60;;;;;;;;;;5049846;28;20037;-73
2022/03/21 01:06:33;;;;;;;17.55;9.38;;;;;;;;;;5054970;28;20041;-74
2022/03/21 01:08:59;;;;;;;15.55;8.98;;;;;;;;;;5056541;28;20071;-73
2022/03/21 01:11:25;;;;;;;14.77;9.10;;;;;;;;;;5068359;28;20791;-73
2022/03/21 01:13:51;;;;;;;24.02;9.73;;;;;;;;;;5069292;28;20074;-73
2022/03/21 01:16:17;;;;;;;15.35;8.90;;;;;;;;;;5068374;28;20068;-74
2022/03/21 01:18:45;;;;;;;18.48;8.75;;;;;;;;;;5069656;28;20024;-73
2022/03/21 01:21:11;;;;;;;19.25;9.30;;;;;;;;;;5068380;28;20021;-73
2022/03/21 01:23:37;;;;;;;15.20;8.52;;;;;;;;;;5068806;28;20057;-73
2022/03/21 01:26:05;;;;;;;18.75;8.30;;;;;;;;;;5063739;28;20053;-73
2022/03/21 01:28:31;;;;;;;19.40;8.88;;;;;;;;;;5067230;28;20047;-73
2022/03/21 01:30:57;;;;;;;16.55;8.57;;;;;;;;;;5067564;28;20037;-73
2022/03/21 01:33:23;;;;;;;16.15;8.65;;;;;;;;;;5051522;28;20043;-73
2022/03/21 01:35:49;;;;;;;14.93;8.98;;;;;;;;;;5068682;28;20051;-73
2022/03/21 01:38:15;;;;;;;14.88;8.32;;;;;;;;;;5068206;28;20554;-74
2022/03/21 01:40:41;;;;;;;18.63;8.45;;;;;;;;;;5068898;28;20033;-74
2022/03/21 01:43:10;;;;;;;21.17;9.02;;;;;;;;;;5068145;28;20029;-73
2022/03/21 01:45:36;;;;;;;20.20;9.38;;;;;;;;;;5068686;28;20033;-74
2022/03/21 01:48:03;;;;;;;17.13;9.50;;;;;;;;;;5067669;28;20060;-74
2022/03/21 01:50:29;;;;;;;17.13;9.02;;;;;;;;;;5068769;28;20039;-74
2022/03/21 01:55:43;;;;;;;19.00;9.07;;;;;;;;;;5068640;28;20901;-73
2022/03/21 01:58:10;;;;;;;18.83;9.50;;;;;;;;;;5067407;28;20115;-73
2022/03/21 02:00:37;;;;;;;20.02;9.25;;;;;;;;;;5068920;28;20033;-73
2022/03/21 02:03:03;;;;;;;19.30;8.23;;;;;;;;;;5067803;28;20033;-73
2022/03/21 02:05:31;;;;;;;19.02;8.40;;;;;;;;;;5069446;28;20748;-74
2022/03/21 02:07:57;;;;;;;15.90;8.80;;;;;;;;;;5071941;28;20035;-73
2022/03/21 02:10:23;;;;;;;20.73;9.88;;;;;;;;;;5073047;28;20107;-73
2022/03/21 02:12:49;;;;;;;19.42;9.30;;;;;;;;;;5067519;28;20037;-73
2022/03/21 02:15:15;;;;;;;17.98;9.98;;;;;;;;;;5071823;28;20048;-74
2022/03/21 02:17:43;;;;;;;17.08;8.75;;;;;;;;;;5071833;28;20032;-74
2022/03/21 02:20:09;;;;;;;15.80;7.38;;;;;;;;;;5072383;28;20394;-74
2022/03/21 02:22:54;;;;;;;17.08;9.15;;;;;;;;;;5072179;28;20515;-74
2022/03/21 02:25:20;;;;;;;17.55;8.98;;;;;;;;;;5072604;28;20043;-74
2022/03/21 02:27:47;;;;;;;18.55;10.43;;;;;;;;;;5072138;28;20380;-74
2022/03/21 02:30:13;;;;;;;23.00;11.63;;;;;;;;;;5052911;28;20793;-73
2022/03/21 02:32:40;;;;;;;20.70;10.57;;;;;;;;;;5064740;28;20068;-74
2022/03/21 02:35:06;;;;;;;25.50;11.82;;;;;;;;;;5069421;28;20418;-73
2022/03/21 02:37:32;;;;;;;19.58;9.63;;;;;;;;;;5072129;28;20032;-73
2022/03/21 02:39:59;;;;;;;20.60;10.57;;;;;;;;;;5059229;28;20029;-74
2022/03/21 02:42:25;;;;;;;18.45;10.38;;;;;;;;;;5071578;28;20033;-74
2022/03/21 02:44:51;;;;;;;20.77;10.73;;;;;;;;;;5071028;28;20039;-74
2022/03/21 02:47:17;;;;;;;15.68;9.38;;;;;;;;;;5071739;28;20033;-74
2022/03/21 02:49:43;;;;;;;19.08;10.35;;;;;;;;;;5071101;28;20397;-73
2022/03/21 02:52:10;;;;;;;16.38;7.95;;;;;;;;;;5071957;28;20099;-74
2022/03/21 02:54:36;;;;;;;15.40;8.30;;;;;;;;;;5071236;28;20029;-74
2022/03/21 02:57:02;;;;;;;15.02;8.55;;;;;;;;;;5069707;28;20075;-73
2022/03/21 02:59:29;;;;;;;17.33;7.82;;;;;;;;;;5071197;28;20032;-73
2022/03/21 03:01:55;;;;;;;17.33;8.70;;;;;;;;;;5071734;28;20463;-73
2022/03/21 03:04:22;;;;;;;23.13;10.27;;;;;;;;;;5069841;28;20043;-73
2022/03/21 03:06:48;;;;;;;16.27;8.65;;;;;;;;;;5051815;28;20040;-73
2022/03/21 03:09:14;;;;;;;14.10;7.82;;;;;;;;;;5051711;28;20155;-73
2022/03/21 03:11:40;;;;;;;17.88;8.80;;;;;;;;;;5068254;28;20143;-73
2022/03/21 03:14:06;;;;;;;16.80;8.10;;;;;;;;;;5070756;28;20039;-73
2022/03/21 03:16:32;;;;;;;16.38;8.50;;;;;;;;;;5069620;28;20623;-73
2022/03/21 03:18:58;;;;;;;16.58;7.93;;;;;;;;;;5071462;28;20111;-73
2022/03/21 03:21:30;;;;;;;16.70;8.20;;;;;;;;;;5067708;28;20071;-73
2022/03/21 03:23:57;;;;;;;15.25;7.85;;;;;;;;;;5052914;28;20419;-73
2022/03/21 03:26:23;;;;;;;14.95;8.52;;;;;;;;;;5070329;28;20033;-74
2022/03/21 03:28:49;;;;;;;17.55;7.60;;;;;;;;;;5071087;28;20044;-73
2022/03/21 03:31:16;;;;;;;14.15;7.80;;;;;;;;;;5070217;28;20075;-73
2022/03/21 03:33:45;;;;;;;14.57;7.45;;;;;;;;;;5071114;28;20558;-73
2022/03/21 03:36:11;;;;;;;17.92;8.60;;;;;;;;;;5070271;28;20029;-74
2022/03/21 03:38:37;;;;;;;12.13;7.40;;;;;;;;;;5070491;28;20043;-73
2022/03/21 03:41:03;;;;;;;15.40;7.05;;;;;;;;;;5065307;28;20495;-74
2022/03/21 03:43:29;;;;;;;16.55;8.05;;;;;;;;;;5070781;28;20033;-74
2022/03/21 03:45:57;;;;;;;14.63;8.65;;;;;;;;;;5069933;28;20109;-73
2022/03/21 03:48:24;;;;;;;15.38;8.27;;;;;;;;;;5070780;28;20103;-74
2022/03/21 03:50:50;;;;;;;16.42;8.38;;;;;;;;;;5064045;28;20400;-73
2022/03/21 03:53:17;;;;;;;17.05;8.30;;;;;;;;;;5050832;28;20036;-73
2022/03/21 03:55:43;;;;;;;15.98;7.28;;;;;;;;;;5055582;28;20115;-73
2022/03/21 03:58:09;;;;;;;17.67;8.32;;;;;;;;;;5070175;28;20033;-73
2022/03/21 04:00:35;;;;;;;18.95;8.73;;;;;;;;;;5057796;28;20033;-74
2022/03/21 04:05:46;;;;;;;22.00;9.20;;;;;;;;;;5064242;28;20105;-73
2022/03/21 04:08:12;;;;;;;16.20;8.65;;;;;;;;;;5070562;28;20048;-73
2022/03/21 04:10:38;;;;;;;21.20;10.32;;;;;;;;;;5070218;28;20047;-74
2022/03/21 04:13:04;;;;;;;17.98;9.38;;;;;;;;;;5069686;28;20105;-73
2022/03/21 04:15:30;;;;;;;20.33;10.40;;;;;;;;;;5070058;28;20078;-73
2022/03/21 04:18:04;;;;;;;17.88;10.43;;;;;;;;;;5069497;28;20111;-73
2022/03/21 04:20:31;;;;;;;18.40;10.60;;;;;;;;;;5070431;28;20056;-73
2022/03/21 04:22:57;;;;;;;23.90;11.48;;;;;;;;;;5069312;28;20052;-73
2022/03/21 04:25:23;;;;;;;29.73;13.23;;;;;;;;;;5069859;28;20028;-74
2022/03/21 04:27:49;;;;;;;18.20;10.82;;;;;;;;;;5057219;28;20041;-74
2022/03/21 04:30:15;;;;;;;22.70;11.18;;;;;;;;;;5052658;28;20039;-73
2022/03/21 04:32:43;;;;;;;19.48;9.98;;;;;;;;;;5068794;28;20498;-74
2022/03/21 04:35:10;;;;;;;21.98;10.70;;;;;;;;;;5069595;28;20479;-73
2022/03/21 04:37:36;;;;;;;21.52;10.50;;;;;;;;;;5068829;28;20059;-74
2022/03/21 04:40:02;;;;;;;23.05;12.73;;;;;;;;;;5069749;28;20025;-74
2022/03/21 04:42:28;;;;;;;16.30;9.75;;;;;;;;;;5069182;28;20041;-74
2022/03/21 04:44:54;;;;;;;18.95;9.57;;;;;;;;;;5069688;28;20543;-74
2022/03/21 04:47:21;;;;;;;20.63;10.82;;;;;;;;;;5066358;28;20032;-73
2022/03/21 04:49:47;;;;;;;22.00;11.63;;;;;;;;;;5069845;28;20056;-73
2022/03/21 04:52:13;;;;;;;27.75;12.10;;;;;;;;;;5066768;28;20043;-73
2022/03/21 04:54:40;;;;;;;25.40;12.98;;;;;;;;;;5059750;28;20029;-74
2022/03/21 04:57:08;;;;;;;25.30;13.82;;;;;;;;;;5069069;28;20447;-73
2022/03/21 04:59:34;;;;;;;18.70;10.82;;;;;;;;;;5058469;28;20048;-73
2022/03/21 05:02:01;;;;;;;21.85;10.23;;;;;;;;;;5069558;28;20041;-73
2022/03/21 05:04:27;;;;;;;20.38;10.77;;;;;;;;;;5068453;28;20032;-73
2022/03/21 05:06:57;;;;;;;18.80;10.77;;;;;;;;;;5068629;28;20067;-73
2022/03/21 05:09:23;;;;;;;17.73;10.02;;;;;;;;;;5068437;28;20028;-74
2022/03/21 05:11:49;;;;;;;17.58;9.77;;;;;;;;;;5060126;28;20041;-73
2022/03/21 05:14:18;;;;;;;30.50;15.60;;;;;;;;;;5052685;28;20107;-73
2022/03/21 05:16:45;;;;;;;31.85;16.08;;;;;;;;;;5068391;28;20093;-73
2022/03/21 05:19:11;;;;;;;30.50;15.73;;;;;;;;;;5069380;28;20029;-74
2022/03/21 05:21:37;;;;;;;25.55;13.90;;;;;;;;;;5067910;28;20151;-73
2022/03/21 05:32:17;;;;;;;31.73;17.55;;;;;;;;;;5068480;28;20101;-73
2022/03/21 05:37:27;;;;;;;27.40;14.40;;;;;;;;;;5068336;28;20094;-73
2022/03/21 05:42:38;;;;;;;21.55;12.65;;;;;;;;;;5068583;28;20090;-73
2022/03/21 05:45:04;;;;;;;27.50;13.55;;;;;;;;;;5069589;28;20032;-73
2022/03/21 05:47:30;;;;;;;25.27;12.23;;;;;;;;;;5065428;28;20602;-73
2022/03/21 05:49:56;;;;;;;22.52;13.00;;;;;;;;;;5069142;28;20055;-73
2022/03/21 05:52:23;;;;;;;26.17;13.70;;;;;;;;;;5067314;28;20607;-73
2022/03/21 05:54:50;;;;;;;28.13;13.35;;;;;;;;;;5048747;28;20035;-73
2022/03/21 05:57:16;;;;;;;25.90;13.75;;;;;;;;;;5048780;28;20091;-73
2022/03/21 06:02:26;;;;;;;29.15;14.50;;;;;;;;;;5063277;28;20040;-73
2022/03/21 06:04:53;;;;;;;28.27;13.52;;;;;;;;;;5065408;28;20029;-73
2022/03/21 06:07:19;;;;;;;29.00;13.40;;;;;;;;;;5066590;28;20039;-73
2022/03/21 06:09:45;;;;;;;23.40;12.63;;;;;;;;;;5069007;28;20032;-74
2022/03/21 06:12:12;;;;;;;27.40;13.52;;;;;;;;;;5067934;28;20455;-73
2022/03/21 06:14:38;;;;;;;21.98;11.57;;;;;;;;;;5068847;28;20044;-73
2022/03/21 06:17:04;;;;;;;23.15;12.30;;;;;;;;;;5068688;28;20032;-73
2022/03/21 06:19:30;;;;;;;31.33;13.60;;;;;;;;;;5078353;28;20036;-73
2022/03/21 06:21:56;;;;;;;29.67;13.70;;;;;;;;;;5064842;28;20028;-73
2022/03/21 06:24:23;;;;;;;26.95;12.63;;;;;;;;;;5073471;28;20079;-74
2022/03/21 06:26:49;;;;;;;24.75;13.90;;;;;;;;;;5065811;28;20167;-73
2022/03/21 06:29:15;;;;;;;32.08;13.65;;;;;;;;;;5074629;28;20609;-73
2022/03/21 06:31:41;;;;;;;30.63;13.52;;;;;;;;;;5064932;28;20043;-73
2022/03/21 06:34:07;;;;;;;29.40;14.27;;;;;;;;;;5068498;28;20039;-73
2022/03/21 06:36:33;;;;;;;33.90;15.20;;;;;;;;;;5063221;28;20036;-74
2022/03/21 06:38:59;;;;;;;29.25;13.52;;;;;;;;;;5068825;28;20375;-74
2022/03/21 06:41:25;;;;;;;27.55;13.20;;;;;;;;;;5068100;28;20033;-74
2022/03/21 06:43:51;;;;;;;28.77;12.63;;;;;;;;;;5068903;28;20104;-73
2022/03/21 06:46:17;;;;;;;33.67;13.88;;;;;;;;;;5065214;28;20507;-74
2022/03/21 06:48:43;;;;;;;29.33;12.93;;;;;;;;;;5060928;28;20032;-73
2022/03/21 06:51:10;;;;;;;28.27;14.93;;;;;;;;;;5068994;28;20041;-74
2022/03/21 06:53:36;;;;;;;30.63;13.98;;;;;;;;;;5071307;28;20032;-73
2022/03/21 06:56:02;;;;;;;34.08;14.07;;;;;;;;;;5067953;28;20038;-73
2022/03/21 06:58:29;;;;;;;29.67;14.18;;;;;;;;;;5068291;28;20079;-73
2022/03/21 07:00:55;;;;;;;36.50;15.88;;;;;;;;;;5064750;28;20036;-74
2022/03/21 07:03:23;;;;;;;31.50;13.15;;;;;;;;;;5066110;28;20112;-73
2022/03/21 07:05:49;;;;;;;27.08;13.88;;;;;;;;;;5060202;28;20569;-73
2022/03/21 07:08:15;;;;;;;31.98;14.40;;;;;;;;;;5061695;28;20032;-73
2022/03/21 07:10:43;;;;;;;34.70;14.75;;;;;;;;;;5065143;28;20047;-74
2022/03/21 07:13:09;;;;;;;34.00;14.73;;;;;;;;;;5084072;28;20028;-74
2022/03/21 07:15:37;;;;;;;31.25;14.43;;;;;;;;;;5070334;28;20098;-74
2022/03/21 07:18:03;;;;;;;28.48;13.90;;;;;;;;;;5066280;28;20601;-73
2022/03/21 07:20:29;;;;;;;29.27;14.35;;;;;;;;;;5065996;28;20029;-73
2022/03/21 07:22:56;;;;;;;27.67;13.60;;;;;;;;;;5074500;28;20080;-74
2022/03/21 07:25:22;;;;;;;20.20;9.65;;;;;;;;;;5073959;28;20046;-74
2022/03/21 07:27:49;;;;;;;22.77;10.10;;;;;;;;;;5071701;28;20044;-73
2022/03/21 07:30:15;;;;;;;27.58;12.23;;;;;;;;;;5075915;28;20037;-74
2022/03/21 07:32:42;;;;;;;20.30;11.30;;;;;;;;;;5069892;28;20115;-74
2022/03/21 07:35:08;;;;;;;23.20;11.07;;;;;;;;;;5077421;28;20028;-74
2022/03/21 07:37:50;;;;;;;21.30;11.10;;;;;;;;;;5065293;28;20032;-74
2022/03/21 07:40:17;;;;;;;23.77;10.57;;;;;;;;;;5064785;28;20024;-75
2022/03/21 07:42:44;;;;;;;25.08;11.23;;;;;;;;;;5068287;28;20036;-74
2022/03/21 07:47:56;;;;;;;18.30;10.25;;;;;;;;;;5068649;28;20395;-74
2022/03/21 07:50:25;;;;;;;18.02;8.98;;;;;;;;;;5068354;28;20089;-74
2022/03/21 07:52:52;;;;;;;21.90;8.63;;;;;;;;;;5069642;28;20028;-74
2022/03/21 07:55:18;;;;;;;22.15;9.60;;;;;;;;;;5066365;28;20040;-74
2022/03/21 07:57:44;;;;;;;20.42;10.43;;;;;;;;;;5061038;28;20056;-74
2022/03/21 08:00:11;;;;;;;20.25;11.57;;;;;;;;;;5067793;28;20056;-74
2022/03/21 08:02:37;;;;;;;23.08;12.18;;;;;;;;;;5077678;28;20032;-74
2022/03/21 08:05:04;;;;;;;34.63;10.98;;;;;;;;;;5066830;28;20686;-73
2022/03/21 08:07:30;;;;;;;21.30;10.85;;;;;;;;;;5067434;28;20043;-74
2022/03/21 08:09:56;;;;;;;19.27;10.00;;;;;;;;;;5069480;28;20118;-74
2022/03/21 08:12:22;;;;;;;18.20;9.10;;;;;;;;;;5069821;28;20481;-74
2022/03/21 08:14:48;;;;;;;17.70;8.45;;;;;;;;;;5068892;28;20028;-74
2022/03/21 08:17:14;;;;;;;18.20;8.95;;;;;;;;;;5071493;28;20036;-74
2022/03/21 08:19:40;;;;;;;20.38;9.13;;;;;;;;;;5076010;28;20619;-74
2022/03/21 08:22:07;;;;;;;17.60;9.25;;;;;;;;;;5070295;28;20044;-74
2022/03/21 08:24:36;;;;;;;18.50;8.75;;;;;;;;;;5068517;28;20041;-74
2022/03/21 08:27:02;;;;;;;15.27;7.78;;;;;;;;;;5070004;28;20033;-74
2022/03/21 08:29:28;;;;;;;14.45;7.22;;;;;;;;;;5068048;28;20043;-74
2022/03/21 08:31:54;;;;;;;16.58;7.93;;;;;;;;;;5072498;28;20149;-74
2022/03/21 08:34:20;;;;;;;15.27;8.30;;;;;;;;;;5078206;28;20045;-74
2022/03/21 08:36:46;;;;;;;19.15;7.47;;;;;;;;;;5071139;28;20037;-74
2022/03/21 08:39:12;;;;;;;19.92;7.65;;;;;;;;;;5069754;28;20078;-74
2022/03/21 08:41:38;;;;;;;14.90;7.25;;;;;;;;;;5069586;28;20028;-74
2022/03/21 08:44:04;;;;;;;16.90;6.95;;;;;;;;;;5102895;23;20063;-74
2022/03/21 08:46:30;;;;;;;18.95;7.25;;;;;;;;;;5088340;28;20059;-74
2022/03/21 08:51:43;;;;;;;12.85;6.70;;;;;;;;;;5079000;28;20059;-74
2022/03/21 08:54:09;;;;;;;15.82;6.38;;;;;;;;;;5089037;28;20115;-74
2022/03/21 08:56:35;;;;;;;12.70;7.53;;;;;;;;;;5088996;28;20086;-74
2022/03/21 08:59:01;;;;;;;9.90;5.40;;;;;;;;;;5080933;28;20028;-74
2022/03/21 09:01:27;;;;;;;12.98;5.68;;;;;;;;;;5080255;28;20040;-74
2022/03/21 09:03:54;;;;;;;9.60;5.32;;;;;;;;;;5088770;28;20065;-74
2022/03/21 09:06:23;;;;;;;12.43;5.90;;;;;;;;;;5083823;28;20084;-74
2022/03/21 09:08:49;;;;;;;11.70;5.70;;;;;;;;;;5089379;28;20186;-74
2022/03/21 09:11:17;;;;;;;11.55;5.72;;;;;;;;;;5088464;28;20032;-74
2022/03/21 09:13:44;;;;;;;13.13;5.07;;;;;;;;;;5089614;28;20024;-74
2022/03/21 09:16:10;;;;;;;11.63;5.80;;;;;;;;;;5085249;28;20594;-74
2022/03/21 09:18:36;;;;;;;9.82;5.13;;;;;;;;;;5088941;28;20056;-74
2022/03/21 09:21:02;;;;;;;16.95;6.20;;;;;;;;;;5075511;28;20103;-73
2022/03/21 09:23:28;;;;;;;14.73;6.47;;;;;;;;;;5086061;28;20743;-74
2022/03/21 09:25:55;;;;;;;11.43;6.05;;;;;;;;;;5079968;28;20028;-73
2022/03/21 09:28:21;;;;;;;16.75;6.68;;;;;;;;;;5085566;28;20036;-73
2022/03/21 09:30:48;;;;;;;18.40;7.82;;;;;;;;;;5086249;28;20108;-73
2022/03/21 09:33:15;;;;;;;15.88;7.57;;;;;;;;;;5087028;28;20786;-74
2022/03/21 09:35:43;;;;;;;15.77;6.90;;;;;;;;;;5076976;28;20572;-74
2022/03/21 09:38:09;;;;;;;13.55;7.40;;;;;;;;;;5084692;28;20032;-74
2022/03/21 09:40:36;;;;;;;12.15;6.53;;;;;;;;;;5087629;28;20034;-74
2022/03/21 09:43:02;;;;;;;13.90;7.00;;;;;;;;;;5079518;28;20059;-73
2022/03/21 09:45:28;;;;;;;17.40;6.35;;;;;;;;;;5087975;28;20032;-74
2022/03/21 09:48:11;;;;;;;14.35;6.30;;;;;;;;;;5084564;28;20081;-73
2022/03/21 09:50:39;;;;;;;14.40;6.68;;;;;;;;;;5082520;28;20024;-73
2022/03/21 09:53:06;;;;;;;17.73;7.07;;;;;;;;;;5061700;28;20407;-74
2022/03/21 09:55:32;;;;;;;16.83;7.20;;;;;;;;;;5049476;28;20033;-74
2022/03/21 09:57:58;;;;;;;14.15;6.40;;;;;;;;;;5074740;28;20036;-74
2022/03/21 10:00:27;;;;;;;19.35;6.82;;;;;;;;;;5059975;28;20128;-74
2022/03/21 10:02:54;;;;;;;14.40;6.63;;;;;;;;;;5060057;28;20067;-73
2022/03/21 10:05:35;;;;;;;21.40;7.22;;;;;;;;;;5060963;28;20041;-74
2022/03/21 10:08:20;;;;;;;14.63;6.78;;;;;;;;;;5060770;28;20456;-73
2022/03/21 10:10:51;;;;;;;16.85;7.40;;;;;;;;;;5057166;28;20036;-73
2022/03/21 10:13:18;;;;;;;12.73;6.97;;;;;;;;;;5048292;28;20072;-73
2022/03/21 10:15:44;;;;;;;17.55;6.47;;;;;;;;;;5070151;28;20378;-73
2022/03/21 10:18:11;;;;;;;12.07;6.63;;;;;;;;;;5054904;28;20044;-73
2022/03/21 10:20:37;;;;;;;13.05;6.40;;;;;;;;;;5068927;28;20067;-73
2022/03/21 10:23:19;;;;;;;13.55;6.03;;;;;;;;;;5065560;28;20032;-73
2022/03/21 10:25:45;;;;;;;17.35;7.30;;;;;;;;;;5058492;28;20029;-73
2022/03/21 10:28:11;;;;;;;15.90;7.00;;;;;;;;;;5069769;28;20131;-74
2022/03/21 10:30:44;;;;;;;23.08;7.05;;;;;;;;;;5068160;28;20035;-73
2022/03/21 10:33:10;;;;;;;18.38;6.93;;;;;;;;;;5077181;28;20111;-73
2022/03/21 10:35:45;;;;;;;17.25;6.50;;;;;;;;;;5067070;28;20108;-73
2022/03/21 10:38:11;;;;;;;13.50;6.75;;;;;;;;;;5069755;28;20027;-74
2022/03/21 10:40:47;;;;;;;14.88;7.07;;;;;;;;;;5068624;28;20030;-73
2022/03/21 10:43:19;;;;;;;13.27;7.15;;;;;;;;;;5064438;28;20053;-73
2022/03/21 10:45:45;;;;;;;;;;;;;;;;;;5057092;28;20024;-73
2022/03/21 10:48:15;;;;;;;12.23;6.85;;;;;;;;;;5062934;28;20003;-73
2022/03/21 10:50:46;;;;;;;14.55;7.55;;;;;;;;;;5070074;28;20055;-74
2022/03/21 10:53:23;;;;;;;11.68;6.10;;;;;;;;;;5062682;28;20379;-73
2022/03/21 10:55:50;;;;;;;16.05;6.45;;;;;;;;;;5064323;28;20036;-73
2022/03/21 10:58:17;;;;;;;13.23;7.25;;;;;;;;;;5065694;28;20476;-73
2022/03/21 11:00:44;;;;;;;14.50;6.60;;;;;;;;;;5068045;28;20364;-73
2022/03/21 11:03:14;;;;;;;14.05;6.85;;;;;;;;;;5069744;28;20024;-73
2022/03/21 11:05:41;;;;;;;13.90;6.57;;;;;;;;;;5071691;28;20123;-73
2022/03/21 11:08:09;;;;;;;14.35;6.53;;;;;;;;;;5070613;28;20509;-73
2022/03/21 11:10:35;;;;;;;16.40;6.68;;;;;;;;;;5065457;28;20067;-73
2022/03/21 11:13:02;;;;;;;12.80;6.57;;;;;;;;;;5087926;28;20982;-74
2022/03/21 11:15:29;;;;;;;15.40;7.53;;;;;;;;;;5068438;28;20040;-74
2022/03/21 11:17:56;;;;;;;13.52;6.90;;;;;;;;;;5066638;28;20028;-74
2022/03/21 11:20:22;;;;;;;11.80;6.68;;;;;;;;;;5070676;28;20032;-73
2022/03/21 11:22:48;;;;;;;15.80;7.55;;;;;;;;;;5066332;28;20037;-73
2022/03/21 11:25:17;;;;;;;16.88;7.95;;;;;;;;;;5076747;28;20032;-73
2022/03/21 11:27:56;;;;;;;17.40;6.90;;;;;;;;;;5068758;28;20033;-74
2022/03/21 11:30:22;;;;;;;14.65;7.35;;;;;;;;;;5062760;28;20041;-73
2022/03/21 11:32:51;;;;;;;14.45;6.70;;;;;;;;;;5060243;28;20037;-74
2022/03/21 11:35:24;;;;;;;19.27;7.28;;;;;;;;;;5056754;28;20033;-74
2022/03/21 11:37:50;;;;;;;17.60;7.60;;;;;;;;;;5060583;28;20068;-74
2022/03/21 11:40:36;;;;;;;15.35;7.80;;;;;;;;;;5058339;28;20071;-74
2022/03/21 11:43:17;;;;;;;12.40;6.47;;;;;;;;;;5056695;28;20511;-75
2022/03/21 11:45:44;;;;;;;14.83;7.57;;;;;;;;;;5061249;28;20094;-74
2022/03/21 11:48:19;;;;;;;14.00;6.63;;;;;;;;;;5061701;28;20044;-74
2022/03/21 11:50:54;;;;;;;22.50;8.50;;;;;;;;;;5062006;28;20029;-73
2022/03/21 11:53:36;;;;;;;18.98;8.35;;;;;;;;;;5058742;28;20041;-74
2022/03/21 11:56:02;;;;;;;11.32;7.07;;;;;;;;;;5056805;28;20044;-75
2022/03/21 11:58:31;;;;;;;15.68;9.13;;;;;;;;;;5062427;28;20036;-74
2022/03/21 12:01:12;;;;;;;12.90;7.40;;;;;;;;;;5058514;28;20047;-75
2022/03/21 12:03:38;;;;;;;15.90;8.07;;;;;;;;;;5060986;28;20048;-74
2022/03/21 12:06:37;;;;;;;15.88;7.72;;;;;;;;;;5058853;28;20498;-74
2022/03/21 12:09:13;;;;;;;19.48;8.30;;;;;;;;;;5029820;28;20606;-75
2022/03/21 12:11:39;;;;;;;13.02;7.43;;;;;;;;;;5062444;28;20036;-75
2022/03/21 12:14:40;;;;;;;18.48;7.32;;;;;;;;;;5067979;28;20167;-75
2022/03/21 12:17:06;;;;;;;12.60;7.43;;;;;;;;;;5066859;28;20043;-75
2022/03/21 12:20:02;;;;;;;15.90;7.63;;;;;;;;;;5067150;28;20028;-75
2022/03/21 12:22:39;;;;;;;19.30;7.97;;;;;;;;;;5070236;28;20102;-75
2022/03/21 12:25:14;;;;;;;15.55;8.02;;;;;;;;;;5053983;28;20066;-75
2022/03/21 12:27:42;;;;;;;13.90;7.60;;;;;;;;;;5068355;28;20029;-75
2022/03/21 12:30:30;;;;;;;16.25;8.70;;;;;;;;;;5058156;28;20031;-75
2022/03/21 12:33:15;;;;;;;17.17;8.40;;;;;;;;;;5064502;28;20032;-75
2022/03/21 12:35:50;;;;;;;16.80;8.10;;;;;;;;;;5058636;28;20128;-75
2022/03/21 12:38:17;;;;;;;16.40;8.27;;;;;;;;;;5063132;28;20394;-74
2022/03/21 12:40:50;;;;;;;16.27;9.35;;;;;;;;;;5058886;28;20032;-74
2022/03/21 12:43:19;;;;;;;17.58;8.98;;;;;;;;;;5074161;28;20048;-75
2022/03/21 12:45:45;;;;;;;18.13;9.73;;;;;;;;;;5078819;28;20032;-75
2022/03/21 12:48:13;;;;;;;21.45;9.52;;;;;;;;;;5062611;28;20045;-75
2022/03/21 12:50:39;;;;;;;20.83;9.50;;;;;;;;;;5056331;28;20124;-75
2022/03/21 12:53:07;;;;;;;16.25;8.40;;;;;;;;;;5069567;28;20036;-75
2022/03/21 12:55:33;;;;;;;19.42;9.05;;;;;;;;;;5060962;28;20670;-75
2022/03/21 12:58:10;;;;;;;20.60;8.73;;;;;;;;;;5066194;28;20028;-75
2022/03/21 13:00:38;;;;;;;17.42;9.52;;;;;;;;;;5060093;28;20737;-75
2022/03/21 13:03:14;;;;;;;19.08;8.95;;;;;;;;;;5060261;28;20033;-75
2022/03/21 13:11:37;;;;;;;14.85;8.93;;;;;;;;;;5068080;28;20399;-75
2022/03/21 13:14:05;;;;;;;16.95;9.10;;;;;;;;;;5065043;28;20037;-75
2022/03/21 13:16:38;;;;;;;20.77;9.25;;;;;;;;;;5065060;28;20075;-75
2022/03/21 13:19:06;;;;;;;13.32;8.20;;;;;;;;;;5066718;28;20150;-75
2022/03/21 13:21:35;;;;;;;17.45;8.52;;;;;;;;;;5065348;28;20028;-75
2022/03/21 13:24:01;;;;;;;24.25;9.65;;;;;;;;;;5071433;28;20036;-75
2022/03/21 13:26:27;;;;;;;18.08;8.65;;;;;;;;;;5063598;28;20054;-75
2022/03/21 13:28:54;;;;;;;15.25;8.60;;;;;;;;;;5054639;28;20036;-75
2022/03/21 13:31:21;;;;;;;19.35;8.48;;;;;;;;;;5061299;28;20040;-75
2022/03/21 13:33:54;;;;;;;15.57;7.63;;;;;;;;;;5060592;28;20041;-75
2022/03/21 13:36:24;;;;;;;16.67;8.40;;;;;;;;;;5052221;28;20033;-75
2022/03/21 13:38:51;;;;;;;16.73;8.48;;;;;;;;;;5065576;28;20040;-75
2022/03/21 13:41:17;;;;;;;16.88;8.07;;;;;;;;;;5053957;28;20800;-75
2022/03/21 13:44:00;;;;;;;17.08;8.77;;;;;;;;;;5050031;28;20056;-75
2022/03/21 13:46:26;;;;;;;15.73;9.13;;;;;;;;;;5075430;28;20064;-75
2022/03/21 13:48:52;;;;;;;13.73;8.55;;;;;;;;;;5082412;28;20056;-75
2022/03/21 13:51:18;;;;;;;18.35;8.38;;;;;;;;;;5070429;28;20097;-75
2022/03/21 13:53:44;;;;;;;20.73;7.13;;;;;;;;;;5064463;28;20033;-75
2022/03/21 13:56:13;;;;;;;16.40;7.30;;;;;;;;;;5061325;28;20029;-75
2022/03/21 13:58:39;;;;;;;19.13;7.82;;;;;;;;;;5059037;28;20041;-75
2022/03/21 14:01:19;;;;;;;15.63;7.72;;;;;;;;;;5061389;28;20081;-75
2022/03/21 14:03:47;;;;;;;19.25;8.43;;;;;;;;;;5065197;28;20090;-75
2022/03/21 14:06:13;;;;;;;19.52;8.70;;;;;;;;;;5066455;28;20064;-74
2022/03/21 14:08:39;;;;;;;15.75;8.02;;;;;;;;;;5076716;28;20065;-75
2022/03/21 14:11:08;;;;;;;23.85;8.77;;;;;;;;;;5054928;28;20063;-75
2022/03/21 14:13:38;;;;;;;16.50;7.53;;;;;;;;;;5063967;28;20086;-74
2022/03/21 14:16:05;;;;;;;15.35;8.25;;;;;;;;;;5065953;28;20028;-74
2022/03/21 14:18:35;;;;;;;17.13;8.88;;;;;;;;;;5068367;28;20095;-74
2022/03/21 14:21:03;;;;;;;18.90;8.70;;;;;;;;;;5070562;28;20111;-74
2022/03/21 14:23:32;;;;;;;18.05;8.70;;;;;;;;;;5068182;28;20736;-74
2022/03/21 14:28:43;;;;;;;20.77;9.13;;;;;;;;;;5072977;28;20054;-74
2022/03/21 14:31:11;;;;;;;19.20;9.40;;;;;;;;;;5069568;28;20032;-74
2022/03/21 14:33:37;;;;;;;19.83;8.00;;;;;;;;;;5064425;28;20043;-74
2022/03/21 14:36:04;;;;;;;18.05;7.80;;;;;;;;;;5076368;28;20028;-74
2022/03/21 14:38:30;;;;;;;15.88;7.85;;;;;;;;;;5082009;28;20035;-74
2022/03/21 14:40:57;;;;;;;15.13;8.18;;;;;;;;;;5071098;28;20107;-74
2022/03/21 14:43:27;;;;;;;15.05;7.80;;;;;;;;;;5080184;28;20062;-75
2022/03/21 14:45:54;;;;;;;15.10;8.63;;;;;;;;;;5068376;28;20025;-74
2022/03/21 14:48:22;;;;;;;17.95;7.80;;;;;;;;;;5064475;28;20158;-74
2022/03/21 14:50:48;;;;;;;16.20;8.95;;;;;;;;;;5073647;28;20129;-74
2022/03/21 14:53:14;;;;;;;15.05;7.88;;;;;;;;;;5080983;28;20396;-74
2022/03/21 14:55:40;;;;;;;15.35;7.55;;;;;;;;;;5069152;28;20475;-74
2022/03/21 14:58:08;;;;;;;16.02;7.68;;;;;;;;;;5075431;28;20047;-74
2022/03/21 15:00:34;;;;;;;15.27;7.88;;;;;;;;;;5076202;28;20066;-75
2022/03/21 15:03:00;;;;;;;16.27;8.18;;;;;;;;;;5069746;28;20033;-74
2022/03/21 15:05:26;;;;;;;17.98;8.35;;;;;;;;;;5055303;28;20104;-74